createdAt,value
2023-05-14T00:00:14.223Z,19.33
2023-05-14T00:05:41.249Z,19.33
2023-05-14T00:10:48.502Z,19.34
2023-05-14T00:15:56.029Z,19.31
2023-05-14T00:21:03.548Z,19.33
2023-05-14T00:26:10.747Z,19.33
2023-05-14T00:31:18.048Z,19.32
2023-05-14T00:36:25.238Z,19.32
2023-05-14T00:41:32.567Z,19.30
2023-05-14T00:46:39.844Z,19.31
2023-05-14T00:51:47.409Z,19.31
2023-05-14T00:56:54.796Z,19.30
2023-05-14T01:02:02.017Z,19.29
2023-05-14T01:07:14.793Z,19.30
2023-05-14T01:12:28.420Z,19.30
2023-05-14T01:17:37.863Z,19.29
2023-05-14T01:22:45.045Z,19.27
2023-05-14T01:27:56.866Z,19.27
2023-05-14T01:33:05.208Z,19.28
2023-05-14T01:38:13.413Z,19.26
2023-05-14T01:43:21.256Z,19.27
2023-05-14T01:48:30.289Z,19.27
2023-05-14T01:53:37.504Z,19.26
2023-05-14T01:58:44.802Z,19.27
2023-05-14T02:03:51.867Z,19.27
2023-05-14T02:08:59.232Z,19.27
2023-05-14T02:14:06.520Z,19.28
2023-05-14T02:19:13.759Z,19.25
2023-05-14T02:24:21.103Z,19.26
2023-05-14T02:29:28.124Z,19.23
2023-05-14T02:34:35.322Z,19.23
2023-05-14T02:39:42.527Z,19.22
2023-05-14T02:44:49.974Z,19.21
2023-05-14T02:49:57.420Z,19.20
2023-05-14T02:55:04.878Z,19.20
2023-05-14T03:00:13.448Z,19.23
2023-05-14T03:05:21.014Z,19.20
2023-05-14T03:10:28.116Z,19.19
2023-05-14T03:15:35.376Z,19.18
2023-05-14T03:20:42.658Z,19.18
2023-05-14T03:25:49.802Z,19.18
2023-05-14T03:30:57.511Z,19.18
2023-05-14T03:36:05.288Z,19.17
2023-05-14T03:41:12.587Z,19.18
2023-05-14T03:46:20.007Z,19.17
2023-05-14T03:51:26.886Z,19.18
2023-05-14T03:56:34.264Z,19.18
2023-05-14T04:01:41.674Z,19.16
2023-05-14T04:06:48.818Z,19.17
2023-05-14T04:11:55.846Z,19.19
2023-05-14T04:17:02.777Z,19.18
2023-05-14T04:22:10.133Z,19.19
2023-05-14T04:27:22.190Z,19.18
2023-05-14T04:32:30.651Z,19.18
2023-05-14T04:37:37.853Z,19.17
2023-05-14T04:42:45.170Z,19.18
2023-05-14T04:47:52.542Z,19.19
2023-05-14T04:52:59.742Z,19.19
2023-05-14T04:58:07.014Z,19.21
2023-05-14T05:03:14.052Z,19.22
2023-05-14T05:08:21.539Z,19.27
2023-05-14T05:13:28.846Z,19.31
2023-05-14T05:18:36.659Z,19.34
2023-05-14T05:23:43.933Z,19.36
2023-05-14T05:28:51.237Z,19.39
2023-05-14T05:33:58.736Z,19.44
2023-05-14T05:39:06.653Z,19.48
2023-05-14T05:44:13.922Z,19.48
2023-05-14T05:49:21.255Z,19.52
2023-05-14T05:54:28.787Z,19.56
2023-05-14T05:59:36.622Z,19.59
2023-05-14T06:04:43.805Z,19.62
2023-05-14T06:09:51.261Z,19.64
2023-05-14T06:14:58.968Z,19.67
2023-05-14T06:20:08.285Z,19.69
2023-05-14T06:25:15.603Z,19.73
2023-05-14T06:30:23.330Z,19.74
2023-05-14T06:35:30.935Z,19.78
2023-05-14T06:40:38.624Z,19.80
2023-05-14T06:45:46.523Z,19.81
2023-05-14T06:50:54.417Z,19.80
2023-05-14T06:56:01.518Z,19.83
2023-05-14T07:01:08.601Z,19.83
2023-05-14T07:06:15.770Z,19.83
2023-05-14T07:11:23.524Z,19.85
2023-05-14T07:16:31.290Z,19.89
2023-05-14T07:21:38.743Z,19.91
2023-05-14T07:26:46.093Z,19.90
2023-05-14T07:31:53.752Z,19.91
2023-05-14T07:37:00.911Z,19.92
2023-05-14T07:42:08.615Z,19.95
2023-05-14T07:47:15.929Z,19.95
2023-05-14T07:52:22.950Z,19.97
2023-05-14T07:57:30.340Z,19.99
2023-05-14T08:02:38.063Z,20.01
2023-05-14T08:07:45.682Z,20.01
2023-05-14T08:12:53.053Z,20.01
2023-05-14T08:18:04.026Z,20.03
2023-05-14T08:23:11.576Z,20.03
2023-05-14T08:28:18.937Z,20.04
2023-05-14T08:33:26.319Z,20.06
2023-05-14T08:38:33.377Z,20.05
2023-05-14T08:43:46.918Z,20.04
2023-05-14T08:48:58.447Z,20.08
2023-05-14T08:54:07.594Z,20.09
2023-05-14T08:59:14.714Z,20.08
2023-05-14T09:04:22.685Z,20.08
2023-05-14T09:09:30.210Z,20.09
2023-05-14T09:14:37.543Z,20.09
2023-05-14T09:19:45.563Z,20.08
2023-05-14T09:25:03.745Z,20.08
2023-05-14T09:30:12.370Z,20.09
2023-05-14T09:35:21.044Z,20.08
2023-05-14T09:40:28.907Z,20.09
2023-05-14T09:45:36.749Z,20.06
2023-05-14T09:50:45.885Z,20.05
2023-05-14T09:55:53.231Z,20.06
2023-05-14T10:01:00.585Z,20.06
2023-05-14T10:06:11.016Z,20.06
2023-05-14T10:11:21.635Z,20.04
2023-05-14T10:16:30.272Z,20.03
2023-05-14T10:21:38.063Z,20.01
2023-05-14T10:26:45.540Z,20.02
2023-05-14T10:31:54.584Z,20.01
2023-05-14T10:37:02.832Z,20.00
2023-05-14T10:42:11.022Z,20.01
2023-05-14T10:47:19.053Z,20.00
2023-05-14T10:52:26.657Z,19.99
2023-05-14T10:57:34.151Z,19.99
2023-05-14T11:02:41.989Z,19.98
2023-05-14T11:07:49.994Z,19.98
2023-05-14T11:12:58.184Z,19.98
2023-05-14T11:18:05.319Z,19.97
2023-05-14T11:23:12.456Z,19.97
2023-05-14T11:28:19.598Z,19.96
2023-05-14T11:33:29.562Z,19.95
2023-05-14T11:38:37.159Z,19.95
2023-05-14T11:43:44.711Z,19.95
2023-05-14T11:48:52.065Z,19.95
2023-05-14T11:53:59.797Z,19.96
2023-05-14T11:59:06.984Z,19.96
2023-05-14T12:04:14.371Z,19.94
2023-05-14T12:09:22.021Z,19.95
2023-05-14T12:14:29.168Z,19.94
2023-05-14T12:19:41.795Z,19.93
2023-05-14T12:24:56.457Z,19.94
2023-05-14T12:30:19.976Z,19.95
2023-05-14T12:35:28.327Z,19.95
2023-05-14T12:40:35.298Z,19.94
2023-05-14T12:45:42.344Z,19.94
2023-05-14T12:50:50.304Z,19.94
2023-05-14T12:55:57.765Z,19.94
2023-05-14T13:01:05.259Z,19.93
2023-05-14T13:06:12.455Z,19.93
2023-05-14T13:11:19.811Z,19.93
2023-05-14T13:16:27.019Z,19.93
2023-05-14T13:21:34.462Z,19.93
2023-05-14T13:26:41.553Z,19.93
2023-05-14T13:31:48.864Z,19.92
2023-05-14T13:36:56.209Z,19.92
2023-05-14T13:42:03.238Z,19.92
2023-05-14T13:47:10.490Z,19.92
2023-05-14T13:52:17.743Z,19.93
2023-05-14T13:57:24.912Z,19.93
2023-05-14T14:02:33.565Z,19.92
2023-05-14T14:07:41.562Z,19.94
2023-05-14T14:12:48.849Z,19.93
2023-05-14T14:17:56.362Z,19.93
2023-05-14T14:23:03.950Z,19.93
2023-05-14T14:28:11.324Z,19.92
2023-05-14T14:33:18.837Z,19.93
2023-05-14T14:38:26.510Z,19.94
2023-05-14T14:43:33.884Z,19.92
2023-05-14T14:48:42.084Z,19.93
2023-05-14T14:53:49.411Z,19.92
2023-05-14T14:58:56.697Z,19.93
2023-05-14T15:04:04.477Z,19.92
2023-05-14T15:09:12.209Z,19.92
2023-05-14T15:14:19.556Z,19.93
2023-05-14T15:19:26.788Z,19.92
2023-05-14T15:24:34.244Z,19.93
2023-05-14T15:29:41.757Z,19.92
2023-05-14T15:34:49.057Z,19.91
2023-05-14T15:39:56.250Z,19.92
2023-05-14T15:45:03.563Z,19.92
2023-05-14T15:50:11.575Z,19.91
2023-05-14T15:55:19.193Z,19.92
2023-05-14T16:00:27.232Z,19.92
2023-05-14T16:05:34.590Z,19.92
2023-05-14T16:10:42.031Z,19.91
2023-05-14T16:15:49.834Z,19.92
2023-05-14T16:20:57.051Z,19.92
2023-05-14T16:26:04.239Z,19.91
2023-05-14T16:31:11.721Z,19.90
2023-05-14T16:36:19.161Z,19.91
2023-05-14T16:41:26.414Z,19.91
2023-05-14T16:46:34.506Z,19.91
2023-05-14T16:51:43.529Z,19.92
2023-05-14T16:56:51.094Z,19.91
2023-05-14T17:01:58.367Z,19.91
2023-05-14T17:07:05.632Z,19.91
2023-05-14T17:12:14.204Z,19.91
2023-05-14T17:17:21.920Z,19.91
2023-05-14T17:22:29.230Z,19.92
2023-05-14T17:27:36.647Z,19.90
2023-05-14T17:32:44.156Z,19.90
2023-05-14T17:37:51.882Z,19.90
2023-05-14T17:42:58.919Z,19.90
2023-05-14T17:48:06.421Z,19.91
2023-05-14T17:53:13.660Z,19.90
2023-05-14T17:58:21.343Z,19.90
2023-05-14T18:03:29.060Z,19.91
2023-05-14T18:08:36.497Z,19.91
2023-05-14T18:13:44.108Z,19.92
2023-05-14T18:18:51.776Z,19.91
2023-05-14T18:23:59.265Z,19.90
2023-05-14T18:29:06.378Z,19.89
2023-05-14T18:34:13.753Z,19.90
2023-05-14T18:39:20.987Z,19.87
2023-05-14T18:44:28.315Z,19.88
2023-05-14T18:49:36.018Z,19.88
2023-05-14T18:54:43.300Z,19.89
2023-05-14T18:59:50.732Z,19.89
2023-05-14T19:04:57.950Z,19.89
2023-05-14T19:10:05.479Z,19.88
2023-05-14T19:15:13.395Z,19.89
2023-05-14T19:20:20.580Z,19.88
2023-05-14T19:25:28.280Z,19.87
2023-05-14T19:30:35.732Z,19.86
2023-05-14T19:35:43.301Z,19.86
2023-05-14T19:40:51.526Z,19.86
2023-05-14T19:46:01.322Z,19.87
2023-05-14T19:51:08.967Z,19.87
2023-05-14T19:56:16.047Z,19.87
2023-05-14T20:01:23.420Z,19.84
2023-05-14T20:06:30.958Z,19.85
2023-05-14T20:11:38.287Z,19.85
2023-05-14T20:16:47.208Z,19.85
2023-05-14T20:21:54.859Z,19.85
2023-05-14T20:27:02.445Z,19.85
2023-05-14T20:32:10.076Z,19.85
2023-05-14T20:37:18.017Z,19.84
2023-05-14T20:42:25.199Z,19.84
2023-05-14T20:47:34.440Z,19.84
2023-05-14T20:52:41.749Z,19.84
2023-05-14T20:57:49.969Z,19.86
2023-05-14T21:02:57.171Z,19.85
2023-05-14T21:08:04.479Z,19.84
2023-05-14T21:13:11.888Z,19.83
2023-05-14T21:18:19.057Z,19.83
2023-05-14T21:23:26.293Z,19.84
2023-05-14T21:28:33.445Z,19.83
2023-05-14T21:33:41.236Z,19.84
2023-05-14T21:38:48.357Z,19.82
2023-05-14T21:43:55.666Z,19.82
2023-05-14T21:49:02.799Z,19.83
2023-05-14T21:54:10.346Z,19.83
2023-05-14T21:59:17.803Z,19.83
2023-05-14T22:04:25.138Z,19.83
2023-05-14T22:09:32.363Z,19.82
2023-05-14T22:14:39.555Z,19.81
2023-05-14T22:19:46.733Z,19.80
2023-05-14T22:24:53.869Z,19.82
2023-05-14T22:30:01.074Z,19.82
2023-05-14T22:35:08.755Z,19.82
2023-05-14T22:40:16.555Z,19.80
2023-05-14T22:45:24.074Z,19.81
2023-05-14T22:50:31.446Z,19.82
2023-05-14T22:55:38.681Z,19.80
2023-05-14T23:00:45.821Z,19.82
2023-05-14T23:05:53.328Z,19.80
2023-05-14T23:11:00.656Z,19.80
2023-05-14T23:16:08.206Z,19.80
2023-05-14T23:21:15.538Z,19.79
2023-05-14T23:26:23.355Z,19.81
2023-05-14T23:31:30.436Z,19.78
2023-05-14T23:36:38.087Z,19.79
2023-05-14T23:41:45.372Z,19.79
2023-05-14T23:46:52.437Z,19.77
2023-05-14T23:51:59.842Z,19.79
2023-05-14T23:57:07.244Z,19.77
